sensor_id;sensor_type;location;lat;lon;timestamp;P1;durP1;ratioP1;P2;durP2;ratioP2
75009;SDS011;63564;46.840;18.336;2023-02-28T00:01:21;16.80;;;7.55;;
75009;SDS011;63564;46.840;18.336;2023-02-28T00:04:22;14.90;;;7.17;;
75009;SDS011;63564;46.840;18.336;2023-02-28T00:07:22;13.57;;;6.63;;
75009;SDS011;63564;46.840;18.336;2023-02-28T00:10:24;14.40;;;6.18;;
75009;SDS011;63564;46.840;18.336;2023-02-28T00:13:26;12.83;;;6.23;;
75009;SDS011;63564;46.840;18.336;2023-02-28T00:16:26;11.75;;;5.85;;
75009;SDS011;63564;46.840;18.336;2023-02-28T00:19:27;14.43;;;6.17;;
75009;SDS011;63564;46.840;18.336;2023-02-28T00:22:28;15.13;;;6.20;;
75009;SDS011;63564;46.840;18.336;2023-02-28T00:25:28;15.43;;;6.10;;
75009;SDS011;63564;46.840;18.336;2023-02-28T00:28:28;16.43;;;6.83;;
75009;SDS011;63564;46.840;18.336;2023-02-28T00:31:29;13.45;;;6.22;;
75009;SDS011;63564;46.840;18.336;2023-02-28T00:34:30;15.70;;;6.10;;
75009;SDS011;63564;46.840;18.336;2023-02-28T00:37:30;13.32;;;5.75;;
75009;SDS011;63564;46.840;18.336;2023-02-28T00:40:31;13.90;;;6.00;;
75009;SDS011;63564;46.840;18.336;2023-02-28T00:43:35;16.13;;;6.70;;
75009;SDS011;63564;46.840;18.336;2023-02-28T00:46:37;13.95;;;6.00;;
75009;SDS011;63564;46.840;18.336;2023-02-28T00:49:37;17.92;;;7.47;;
75009;SDS011;63564;46.840;18.336;2023-02-28T00:52:38;14.57;;;6.55;;
75009;SDS011;63564;46.840;18.336;2023-02-28T00:55:38;14.47;;;6.10;;
75009;SDS011;63564;46.840;18.336;2023-02-28T00:58:39;15.50;;;6.80;;
75009;SDS011;63564;46.840;18.336;2023-02-28T01:01:40;17.45;;;7.82;;
75009;SDS011;63564;46.840;18.336;2023-02-28T01:04:41;19.37;;;7.67;;
75009;SDS011;63564;46.840;18.336;2023-02-28T01:07:41;18.95;;;8.10;;
75009;SDS011;63564;46.840;18.336;2023-02-28T01:10:42;13.73;;;6.75;;
75009;SDS011;63564;46.840;18.336;2023-02-28T01:13:43;15.30;;;7.20;;
75009;SDS011;63564;46.840;18.336;2023-02-28T01:16:45;15.57;;;7.13;;
75009;SDS011;63564;46.840;18.336;2023-02-28T01:19:45;14.52;;;7.05;;
75009;SDS011;63564;46.840;18.336;2023-02-28T01:22:46;14.32;;;6.55;;
75009;SDS011;63564;46.840;18.336;2023-02-28T01:25:46;14.90;;;6.67;;
75009;SDS011;63564;46.840;18.336;2023-02-28T01:28:47;15.20;;;7.60;;
75009;SDS011;63564;46.840;18.336;2023-02-28T01:31:48;13.48;;;6.70;;
75009;SDS011;63564;46.840;18.336;2023-02-28T01:34:48;13.40;;;6.30;;
75009;SDS011;63564;46.840;18.336;2023-02-28T01:37:49;13.23;;;6.10;;
75009;SDS011;63564;46.840;18.336;2023-02-28T01:40:49;11.77;;;5.80;;
75009;SDS011;63564;46.840;18.336;2023-02-28T01:47:03;12.18;;;5.30;;
75009;SDS011;63564;46.840;18.336;2023-02-28T01:50:04;14.00;;;5.30;;
75009;SDS011;63564;46.840;18.336;2023-02-28T01:53:09;16.08;;;5.80;;
75009;SDS011;63564;46.840;18.336;2023-02-28T01:56:13;14.27;;;5.77;;
75009;SDS011;63564;46.840;18.336;2023-02-28T01:59:39;14.63;;;6.30;;
75009;SDS011;63564;46.840;18.336;2023-02-28T02:02:51;15.35;;;5.80;;
75009;SDS011;63564;46.840;18.336;2023-02-28T02:05:55;13.82;;;6.57;;
75009;SDS011;63564;46.840;18.336;2023-02-28T02:08:56;13.47;;;5.83;;
75009;SDS011;63564;46.840;18.336;2023-02-28T02:11:57;13.00;;;5.65;;
75009;SDS011;63564;46.840;18.336;2023-02-28T02:18:19;15.02;;;5.97;;
75009;SDS011;63564;46.840;18.336;2023-02-28T02:44:47;13.13;;;6.22;;
75009;SDS011;63564;46.840;18.336;2023-02-28T02:47:54;14.17;;;6.53;;
75009;SDS011;63564;46.840;18.336;2023-02-28T02:50:59;15.05;;;6.40;;
75009;SDS011;63564;46.840;18.336;2023-02-28T02:54:07;15.30;;;6.40;;
75009;SDS011;63564;46.840;18.336;2023-02-28T02:57:16;14.13;;;6.40;;
75009;SDS011;63564;46.840;18.336;2023-02-28T03:00:34;12.73;;;6.25;;
75009;SDS011;63564;46.840;18.336;2023-02-28T03:03:39;14.20;;;6.22;;
75009;SDS011;63564;46.840;18.336;2023-02-28T03:06:40;11.93;;;5.57;;
75009;SDS011;63564;46.840;18.336;2023-02-28T03:09:40;13.33;;;6.10;;
75009;SDS011;63564;46.840;18.336;2023-02-28T03:12:51;12.75;;;5.90;;
75009;SDS011;63564;46.840;18.336;2023-02-28T03:26:28;13.50;;;6.35;;
75009;SDS011;63564;46.840;18.336;2023-02-28T03:29:33;14.80;;;5.88;;
75009;SDS011;63564;46.840;18.336;2023-02-28T03:32:43;12.57;;;6.00;;
75009;SDS011;63564;46.840;18.336;2023-02-28T03:35:58;13.70;;;6.18;;
75009;SDS011;63564;46.840;18.336;2023-02-28T03:39:04;13.57;;;6.50;;
75009;SDS011;63564;46.840;18.336;2023-02-28T03:42:09;13.93;;;6.00;;
75009;SDS011;63564;46.840;18.336;2023-02-28T03:45:23;14.30;;;6.40;;
75009;SDS011;63564;46.840;18.336;2023-02-28T03:48:32;12.15;;;6.25;;
75009;SDS011;63564;46.840;18.336;2023-02-28T03:51:53;15.60;;;6.35;;
75009;SDS011;63564;46.840;18.336;2023-02-28T03:54:59;15.27;;;6.50;;
75009;SDS011;63564;46.840;18.336;2023-02-28T04:01:30;17.25;;;7.35;;
75009;SDS011;63564;46.840;18.336;2023-02-28T04:04:35;16.33;;;7.28;;
75009;SDS011;63564;46.840;18.336;2023-02-28T04:07:36;13.25;;;6.28;;
75009;SDS011;63564;46.840;18.336;2023-02-28T04:10:37;13.35;;;6.63;;
75009;SDS011;63564;46.840;18.336;2023-02-28T04:13:37;14.20;;;6.43;;
75009;SDS011;63564;46.840;18.336;2023-02-28T04:16:39;13.73;;;6.17;;
75009;SDS011;63564;46.840;18.336;2023-02-28T04:19:41;15.07;;;6.20;;
75009;SDS011;63564;46.840;18.336;2023-02-28T04:22:41;14.47;;;6.43;;
75009;SDS011;63564;46.840;18.336;2023-02-28T04:25:42;17.53;;;7.23;;
75009;SDS011;63564;46.840;18.336;2023-02-28T04:28:43;16.13;;;7.10;;
75009;SDS011;63564;46.840;18.336;2023-02-28T04:31:43;17.50;;;7.60;;
75009;SDS011;63564;46.840;18.336;2023-02-28T04:34:44;16.03;;;6.97;;
75009;SDS011;63564;46.840;18.336;2023-02-28T04:37:44;15.27;;;6.60;;
75009;SDS011;63564;46.840;18.336;2023-02-28T04:40:45;13.87;;;6.33;;
75009;SDS011;63564;46.840;18.336;2023-02-28T04:43:45;13.13;;;6.35;;
75009;SDS011;63564;46.840;18.336;2023-02-28T04:46:47;14.23;;;5.93;;
75009;SDS011;63564;46.840;18.336;2023-02-28T04:49:48;12.97;;;5.90;;
75009;SDS011;63564;46.840;18.336;2023-02-28T04:52:48;14.38;;;6.07;;
75009;SDS011;63564;46.840;18.336;2023-02-28T04:55:48;13.65;;;6.40;;
75009;SDS011;63564;46.840;18.336;2023-02-28T04:58:49;15.53;;;6.67;;
75009;SDS011;63564;46.840;18.336;2023-02-28T05:01:50;24.48;;;10.85;;
75009;SDS011;63564;46.840;18.336;2023-02-28T05:04:51;20.20;;;9.07;;
75009;SDS011;63564;46.840;18.336;2023-02-28T05:07:51;20.10;;;8.70;;
75009;SDS011;63564;46.840;18.336;2023-02-28T05:10:53;16.95;;;7.38;;
75009;SDS011;63564;46.840;18.336;2023-02-28T05:13:53;16.85;;;6.90;;
75009;SDS011;63564;46.840;18.336;2023-02-28T05:16:55;17.83;;;7.37;;
75009;SDS011;63564;46.840;18.336;2023-02-28T05:19:55;13.90;;;6.40;;
75009;SDS011;63564;46.840;18.336;2023-02-28T05:22:56;14.88;;;6.47;;
75009;SDS011;63564;46.840;18.336;2023-02-28T05:25:58;14.37;;;5.90;;
75009;SDS011;63564;46.840;18.336;2023-02-28T05:28:58;15.65;;;6.75;;
75009;SDS011;63564;46.840;18.336;2023-02-28T05:31:59;16.90;;;7.20;;
75009;SDS011;63564;46.840;18.336;2023-02-28T05:34:59;15.50;;;7.20;;
75009;SDS011;63564;46.840;18.336;2023-02-28T05:37:59;15.87;;;7.13;;
75009;SDS011;63564;46.840;18.336;2023-02-28T05:41:00;14.53;;;6.63;;
75009;SDS011;63564;46.840;18.336;2023-02-28T05:44:08;15.65;;;6.95;;
75009;SDS011;63564;46.840;18.336;2023-02-28T05:47:09;14.63;;;6.70;;
75009;SDS011;63564;46.840;18.336;2023-02-28T05:50:09;15.10;;;6.63;;
75009;SDS011;63564;46.840;18.336;2023-02-28T05:53:10;16.87;;;7.10;;
75009;SDS011;63564;46.840;18.336;2023-02-28T05:56:10;17.75;;;8.27;;
75009;SDS011;63564;46.840;18.336;2023-02-28T05:59:11;14.63;;;6.43;;
75009;SDS011;63564;46.840;18.336;2023-02-28T06:02:13;14.23;;;6.28;;
75009;SDS011;63564;46.840;18.336;2023-02-28T06:05:16;15.13;;;6.60;;
75009;SDS011;63564;46.840;18.336;2023-02-28T06:08:17;17.38;;;7.22;;
75009;SDS011;63564;46.840;18.336;2023-02-28T06:11:18;16.23;;;7.17;;
75009;SDS011;63564;46.840;18.336;2023-02-28T06:14:20;17.05;;;7.53;;
75009;SDS011;63564;46.840;18.336;2023-02-28T06:17:20;17.83;;;8.15;;
75009;SDS011;63564;46.840;18.336;2023-02-28T06:20:21;17.40;;;7.97;;
75009;SDS011;63564;46.840;18.336;2023-02-28T06:23:22;20.47;;;8.07;;
75009;SDS011;63564;46.840;18.336;2023-02-28T06:26:22;16.92;;;7.70;;
75009;SDS011;63564;46.840;18.336;2023-02-28T06:29:23;14.67;;;6.87;;
75009;SDS011;63564;46.840;18.336;2023-02-28T06:32:23;16.47;;;7.13;;
75009;SDS011;63564;46.840;18.336;2023-02-28T06:35:24;20.33;;;7.80;;
75009;SDS011;63564;46.840;18.336;2023-02-28T06:38:24;15.90;;;6.95;;
75009;SDS011;63564;46.840;18.336;2023-02-28T06:41:25;13.93;;;6.22;;
75009;SDS011;63564;46.840;18.336;2023-02-28T06:44:26;16.27;;;6.87;;
75009;SDS011;63564;46.840;18.336;2023-02-28T06:47:26;16.90;;;7.25;;
75009;SDS011;63564;46.840;18.336;2023-02-28T06:50:27;15.98;;;6.50;;
75009;SDS011;63564;46.840;18.336;2023-02-28T06:53:29;13.93;;;5.67;;
75009;SDS011;63564;46.840;18.336;2023-02-28T06:56:29;11.70;;;5.68;;
75009;SDS011;63564;46.840;18.336;2023-02-28T06:59:31;14.80;;;6.63;;
75009;SDS011;63564;46.840;18.336;2023-02-28T07:02:31;15.30;;;6.80;;
75009;SDS011;63564;46.840;18.336;2023-02-28T07:05:31;13.25;;;5.88;;
75009;SDS011;63564;46.840;18.336;2023-02-28T07:08:35;12.83;;;5.87;;
75009;SDS011;63564;46.840;18.336;2023-02-28T07:11:40;14.10;;;6.70;;
75009;SDS011;63564;46.840;18.336;2023-02-28T07:14:42;14.77;;;6.32;;
75009;SDS011;63564;46.840;18.336;2023-02-28T07:17:42;12.43;;;5.90;;
75009;SDS011;63564;46.840;18.336;2023-02-28T07:20:43;13.53;;;5.80;;
75009;SDS011;63564;46.840;18.336;2023-02-28T07:23:43;12.48;;;6.05;;
75009;SDS011;63564;46.840;18.336;2023-02-28T07:26:44;12.52;;;6.57;;
75009;SDS011;63564;46.840;18.336;2023-02-28T07:29:44;13.20;;;5.87;;
75009;SDS011;63564;46.840;18.336;2023-02-28T07:32:45;15.80;;;7.30;;
75009;SDS011;63564;46.840;18.336;2023-02-28T07:35:46;13.77;;;6.32;;
75009;SDS011;63564;46.840;18.336;2023-02-28T07:38:46;14.83;;;7.33;;
75009;SDS011;63564;46.840;18.336;2023-02-28T07:41:49;19.27;;;6.82;;
75009;SDS011;63564;46.840;18.336;2023-02-28T07:44:50;12.23;;;6.17;;
75009;SDS011;63564;46.840;18.336;2023-02-28T07:47:51;13.55;;;6.38;;
75009;SDS011;63564;46.840;18.336;2023-02-28T07:50:55;15.10;;;6.18;;
75009;SDS011;63564;46.840;18.336;2023-02-28T07:53:56;15.20;;;6.37;;
75009;SDS011;63564;46.840;18.336;2023-02-28T07:56:57;15.25;;;6.35;;
75009;SDS011;63564;46.840;18.336;2023-02-28T07:59:58;14.55;;;6.38;;
75009;SDS011;63564;46.840;18.336;2023-02-28T08:02:59;13.43;;;6.17;;
75009;SDS011;63564;46.840;18.336;2023-02-28T08:06:02;13.30;;;5.77;;
75009;SDS011;63564;46.840;18.336;2023-02-28T08:09:06;12.25;;;5.50;;
75009;SDS011;63564;46.840;18.336;2023-02-28T08:12:07;14.37;;;6.13;;
75009;SDS011;63564;46.840;18.336;2023-02-28T08:15:08;14.60;;;6.28;;
75009;SDS011;63564;46.840;18.336;2023-02-28T08:18:09;12.03;;;5.90;;
75009;SDS011;63564;46.840;18.336;2023-02-28T08:21:10;17.02;;;6.55;;
75009;SDS011;63564;46.840;18.336;2023-02-28T08:24:10;13.82;;;6.78;;
75009;SDS011;63564;46.840;18.336;2023-02-28T08:27:11;15.60;;;6.73;;
75009;SDS011;63564;46.840;18.336;2023-02-28T08:30:12;14.60;;;6.50;;
75009;SDS011;63564;46.840;18.336;2023-02-28T08:33:16;14.07;;;6.47;;
75009;SDS011;63564;46.840;18.336;2023-02-28T08:36:17;13.50;;;6.30;;
75009;SDS011;63564;46.840;18.336;2023-02-28T08:39:17;15.20;;;6.37;;
75009;SDS011;63564;46.840;18.336;2023-02-28T08:42:19;15.35;;;6.95;;
75009;SDS011;63564;46.840;18.336;2023-02-28T08:45:20;12.53;;;6.53;;
75009;SDS011;63564;46.840;18.336;2023-02-28T08:48:20;12.40;;;6.23;;
75009;SDS011;63564;46.840;18.336;2023-02-28T08:51:21;11.73;;;5.82;;
75009;SDS011;63564;46.840;18.336;2023-02-28T08:54:26;15.10;;;7.07;;
75009;SDS011;63564;46.840;18.336;2023-02-28T08:57:28;13.15;;;6.75;;
75009;SDS011;63564;46.840;18.336;2023-02-28T09:00:29;14.90;;;6.57;;
75009;SDS011;63564;46.840;18.336;2023-02-28T09:03:29;14.37;;;7.03;;
75009;SDS011;63564;46.840;18.336;2023-02-28T09:06:30;14.98;;;6.50;;
75009;SDS011;63564;46.840;18.336;2023-02-28T09:09:31;13.05;;;6.50;;
75009;SDS011;63564;46.840;18.336;2023-02-28T09:12:33;13.07;;;6.70;;
75009;SDS011;63564;46.840;18.336;2023-02-28T09:15:36;13.40;;;6.30;;
75009;SDS011;63564;46.840;18.336;2023-02-28T09:18:37;14.48;;;7.07;;
75009;SDS011;63564;46.840;18.336;2023-02-28T09:21:38;13.07;;;6.10;;
75009;SDS011;63564;46.840;18.336;2023-02-28T09:24:39;13.60;;;6.87;;
75009;SDS011;63564;46.840;18.336;2023-02-28T09:27:39;13.20;;;6.33;;
75009;SDS011;63564;46.840;18.336;2023-02-28T09:30:40;11.65;;;5.80;;
75009;SDS011;63564;46.840;18.336;2023-02-28T09:33:40;14.57;;;6.63;;
75009;SDS011;63564;46.840;18.336;2023-02-28T09:36:41;14.00;;;6.50;;
75009;SDS011;63564;46.840;18.336;2023-02-28T09:39:41;14.13;;;6.47;;
75009;SDS011;63564;46.840;18.336;2023-02-28T09:42:42;13.13;;;6.80;;
75009;SDS011;63564;46.840;18.336;2023-02-28T09:45:42;12.35;;;6.10;;
75009;SDS011;63564;46.840;18.336;2023-02-28T09:48:48;13.95;;;6.35;;
75009;SDS011;63564;46.840;18.336;2023-02-28T09:51:51;15.48;;;6.68;;
75009;SDS011;63564;46.840;18.336;2023-02-28T09:58:46;14.07;;;7.28;;
75009;SDS011;63564;46.840;18.336;2023-02-28T10:05:37;13.82;;;7.07;;
75009;SDS011;63564;46.840;18.336;2023-02-28T10:08:45;12.93;;;6.72;;
75009;SDS011;63564;46.840;18.336;2023-02-28T10:11:52;15.55;;;7.47;;
75009;SDS011;63564;46.840;18.336;2023-02-28T10:14:57;13.30;;;6.70;;
75009;SDS011;63564;46.840;18.336;2023-02-28T10:18:03;14.77;;;7.57;;
75009;SDS011;63564;46.840;18.336;2023-02-28T10:21:08;16.25;;;7.32;;
75009;SDS011;63564;46.840;18.336;2023-02-28T10:24:35;13.45;;;7.32;;
75009;SDS011;63564;46.840;18.336;2023-02-28T10:27:41;12.85;;;6.28;;
75009;SDS011;63564;46.840;18.336;2023-02-28T10:30:42;12.77;;;6.57;;
75009;SDS011;63564;46.840;18.336;2023-02-28T10:33:46;14.07;;;7.20;;
75009;SDS011;63564;46.840;18.336;2023-02-28T10:36:48;15.67;;;7.67;;
75009;SDS011;63564;46.840;18.336;2023-02-28T10:39:50;14.55;;;6.65;;
75009;SDS011;63564;46.840;18.336;2023-02-28T10:46:22;12.90;;;7.22;;
75009;SDS011;63564;46.840;18.336;2023-02-28T10:49:26;14.77;;;7.88;;
75009;SDS011;63564;46.840;18.336;2023-02-28T10:52:35;14.52;;;7.80;;
75009;SDS011;63564;46.840;18.336;2023-02-28T10:55:37;12.95;;;6.93;;
75009;SDS011;63564;46.840;18.336;2023-02-28T11:01:56;13.55;;;6.10;;
75009;SDS011;63564;46.840;18.336;2023-02-28T11:04:57;12.98;;;6.95;;
75009;SDS011;63564;46.840;18.336;2023-02-28T11:11:13;12.15;;;6.82;;
75009;SDS011;63564;46.840;18.336;2023-02-28T11:14:19;13.40;;;7.30;;
75009;SDS011;63564;46.840;18.336;2023-02-28T11:17:28;12.63;;;6.72;;
75009;SDS011;63564;46.840;18.336;2023-02-28T11:20:31;14.77;;;6.72;;
75009;SDS011;63564;46.840;18.336;2023-02-28T11:23:33;13.13;;;7.00;;
75009;SDS011;63564;46.840;18.336;2023-02-28T11:26:38;12.50;;;6.97;;
75009;SDS011;63564;46.840;18.336;2023-02-28T11:29:46;14.10;;;7.10;;
75009;SDS011;63564;46.840;18.336;2023-02-28T11:32:48;11.77;;;6.35;;
75009;SDS011;63564;46.840;18.336;2023-02-28T11:35:49;13.60;;;6.57;;
75009;SDS011;63564;46.840;18.336;2023-02-28T11:38:51;13.73;;;7.30;;
75009;SDS011;63564;46.840;18.336;2023-02-28T11:45:24;12.40;;;6.50;;
75009;SDS011;63564;46.840;18.336;2023-02-28T11:52:43;12.07;;;6.55;;
75009;SDS011;63564;46.840;18.336;2023-02-28T11:55:51;14.90;;;6.10;;
75009;SDS011;63564;46.840;18.336;2023-02-28T11:59:19;11.32;;;6.13;;
75009;SDS011;63564;46.840;18.336;2023-02-28T12:02:35;11.90;;;6.40;;
75009;SDS011;63564;46.840;18.336;2023-02-28T12:05:44;12.27;;;6.47;;
75009;SDS011;63564;46.840;18.336;2023-02-28T12:16:05;14.23;;;7.00;;
75009;SDS011;63564;46.840;18.336;2023-02-28T12:22:58;12.25;;;6.95;;
75009;SDS011;63564;46.840;18.336;2023-02-28T12:28:56;12.55;;;7.00;;
75009;SDS011;63564;46.840;18.336;2023-02-28T12:32:06;16.77;;;7.70;;
75009;SDS011;63564;46.840;18.336;2023-02-28T12:35:14;14.97;;;6.77;;
75009;SDS011;63564;46.840;18.336;2023-02-28T12:44:46;14.02;;;7.35;;
75009;SDS011;63564;46.840;18.336;2023-02-28T12:47:54;14.87;;;7.00;;
75009;SDS011;63564;46.840;18.336;2023-02-28T12:50:59;15.35;;;7.63;;
75009;SDS011;63564;46.840;18.336;2023-02-28T13:00:38;15.57;;;7.40;;
75009;SDS011;63564;46.840;18.336;2023-02-28T13:10:55;14.38;;;7.80;;
75009;SDS011;63564;46.840;18.336;2023-02-28T13:14:01;15.18;;;7.47;;
75009;SDS011;63564;46.840;18.336;2023-02-28T13:20:17;15.70;;;8.77;;
75009;SDS011;63564;46.840;18.336;2023-02-28T13:23:39;15.10;;;8.40;;
75009;SDS011;63564;46.840;18.336;2023-02-28T13:30:01;15.57;;;8.20;;
75009;SDS011;63564;46.840;18.336;2023-02-28T13:36:46;15.47;;;8.33;;
75009;SDS011;63564;46.840;18.336;2023-02-28T13:42:50;14.37;;;7.50;;
75009;SDS011;63564;46.840;18.336;2023-02-28T13:46:04;14.65;;;7.95;;
75009;SDS011;63564;46.840;18.336;2023-02-28T13:49:23;15.13;;;7.30;;
75009;SDS011;63564;46.840;18.336;2023-02-28T13:59:25;15.20;;;7.88;;
75009;SDS011;63564;46.840;18.336;2023-02-28T14:19:00;15.93;;;8.18;;
75009;SDS011;63564;46.840;18.336;2023-02-28T14:22:13;16.35;;;8.10;;
75009;SDS011;63564;46.840;18.336;2023-02-28T14:28:28;14.73;;;7.40;;
75009;SDS011;63564;46.840;18.336;2023-02-28T14:32:05;17.73;;;7.63;;
75009;SDS011;63564;46.840;18.336;2023-02-28T14:38:29;16.90;;;8.35;;
75009;SDS011;63564;46.840;18.336;2023-02-28T14:41:36;15.37;;;8.17;;
75009;SDS011;63564;46.840;18.336;2023-02-28T14:44:39;14.88;;;7.70;;
75009;SDS011;63564;46.840;18.336;2023-02-28T14:47:39;14.15;;;8.15;;
75009;SDS011;63564;46.840;18.336;2023-02-28T14:50:47;16.27;;;8.23;;
75009;SDS011;63564;46.840;18.336;2023-02-28T14:53:51;13.10;;;6.75;;
75009;SDS011;63564;46.840;18.336;2023-02-28T14:56:56;14.43;;;7.05;;
75009;SDS011;63564;46.840;18.336;2023-02-28T15:06:32;16.60;;;9.45;;
75009;SDS011;63564;46.840;18.336;2023-02-28T15:09:33;21.48;;;10.30;;
75009;SDS011;63564;46.840;18.336;2023-02-28T15:12:34;14.40;;;8.00;;
75009;SDS011;63564;46.840;18.336;2023-02-28T15:15:43;15.68;;;8.40;;
75009;SDS011;63564;46.840;18.336;2023-02-28T15:18:56;14.20;;;7.80;;
75009;SDS011;63564;46.840;18.336;2023-02-28T15:22:00;13.48;;;7.70;;
75009;SDS011;63564;46.840;18.336;2023-02-28T15:25:04;16.63;;;8.85;;
75009;SDS011;63564;46.840;18.336;2023-02-28T15:28:09;15.15;;;8.00;;
75009;SDS011;63564;46.840;18.336;2023-02-28T15:31:18;13.63;;;7.95;;
75009;SDS011;63564;46.840;18.336;2023-02-28T15:34:26;15.73;;;8.13;;
75009;SDS011;63564;46.840;18.336;2023-02-28T15:37:38;16.17;;;7.80;;
75009;SDS011;63564;46.840;18.336;2023-02-28T15:40:42;15.45;;;7.40;;
75009;SDS011;63564;46.840;18.336;2023-02-28T15:47:27;17.20;;;8.50;;
75009;SDS011;63564;46.840;18.336;2023-02-28T15:50:29;16.95;;;7.53;;
75009;SDS011;63564;46.840;18.336;2023-02-28T15:53:30;16.57;;;8.73;;
75009;SDS011;63564;46.840;18.336;2023-02-28T15:56:34;16.80;;;8.35;;
75009;SDS011;63564;46.840;18.336;2023-02-28T15:59:39;17.83;;;8.73;;
75009;SDS011;63564;46.840;18.336;2023-02-28T16:02:42;17.73;;;8.77;;
75009;SDS011;63564;46.840;18.336;2023-02-28T16:05:43;17.27;;;8.70;;
75009;SDS011;63564;46.840;18.336;2023-02-28T16:08:44;16.40;;;9.10;;
75009;SDS011;63564;46.840;18.336;2023-02-28T16:11:45;20.85;;;9.48;;
75009;SDS011;63564;46.840;18.336;2023-02-28T16:14:49;17.65;;;8.73;;
75009;SDS011;63564;46.840;18.336;2023-02-28T16:17:52;20.13;;;9.43;;
75009;SDS011;63564;46.840;18.336;2023-02-28T16:20:54;17.55;;;8.93;;
75009;SDS011;63564;46.840;18.336;2023-02-28T16:23:54;23.92;;;10.48;;
75009;SDS011;63564;46.840;18.336;2023-02-28T16:26:55;25.07;;;10.80;;
75009;SDS011;63564;46.840;18.336;2023-02-28T16:29:56;25.80;;;10.68;;
75009;SDS011;63564;46.840;18.336;2023-02-28T16:32:57;25.23;;;10.60;;
75009;SDS011;63564;46.840;18.336;2023-02-28T16:35:59;21.08;;;9.27;;
75009;SDS011;63564;46.840;18.336;2023-02-28T16:39:00;21.48;;;9.85;;
75009;SDS011;63564;46.840;18.336;2023-02-28T16:42:02;18.38;;;9.60;;
75009;SDS011;63564;46.840;18.336;2023-02-28T16:45:04;19.97;;;10.50;;
75009;SDS011;63564;46.840;18.336;2023-02-28T16:48:04;19.33;;;9.65;;
75009;SDS011;63564;46.840;18.336;2023-02-28T16:51:05;19.83;;;8.97;;
75009;SDS011;63564;46.840;18.336;2023-02-28T16:54:06;18.50;;;8.48;;
75009;SDS011;63564;46.840;18.336;2023-02-28T16:57:11;16.83;;;8.20;;
75009;SDS011;63564;46.840;18.336;2023-02-28T17:00:18;17.67;;;7.93;;
75009;SDS011;63564;46.840;18.336;2023-02-28T17:03:23;19.98;;;8.68;;
75009;SDS011;63564;46.840;18.336;2023-02-28T17:06:26;19.38;;;8.48;;
75009;SDS011;63564;46.840;18.336;2023-02-28T17:09:27;20.40;;;9.30;;
75009;SDS011;63564;46.840;18.336;2023-02-28T17:12:28;21.52;;;9.98;;
75009;SDS011;63564;46.840;18.336;2023-02-28T17:15:28;21.13;;;10.73;;
75009;SDS011;63564;46.840;18.336;2023-02-28T17:18:30;22.95;;;10.82;;
75009;SDS011;63564;46.840;18.336;2023-02-28T17:21:33;27.70;;;12.00;;
75009;SDS011;63564;46.840;18.336;2023-02-28T17:24:34;19.53;;;10.17;;
75009;SDS011;63564;46.840;18.336;2023-02-28T17:27:35;20.70;;;10.10;;
75009;SDS011;63564;46.840;18.336;2023-02-28T17:30:36;20.05;;;9.85;;
75009;SDS011;63564;46.840;18.336;2023-02-28T17:33:36;19.75;;;9.25;;
75009;SDS011;63564;46.840;18.336;2023-02-28T17:36:37;19.83;;;9.17;;
75009;SDS011;63564;46.840;18.336;2023-02-28T17:39:38;20.83;;;9.73;;
75009;SDS011;63564;46.840;18.336;2023-02-28T17:42:40;19.50;;;9.82;;
75009;SDS011;63564;46.840;18.336;2023-02-28T17:45:40;18.87;;;9.20;;
75009;SDS011;63564;46.840;18.336;2023-02-28T17:48:41;21.83;;;10.27;;
75009;SDS011;63564;46.840;18.336;2023-02-28T17:51:42;28.30;;;14.87;;
75009;SDS011;63564;46.840;18.336;2023-02-28T17:54:42;70.10;;;31.90;;
75009;SDS011;63564;46.840;18.336;2023-02-28T17:57:43;40.83;;;19.25;;
75009;SDS011;63564;46.840;18.336;2023-02-28T18:00:44;31.48;;;15.65;;
75009;SDS011;63564;46.840;18.336;2023-02-28T18:03:47;37.70;;;19.55;;
75009;SDS011;63564;46.840;18.336;2023-02-28T18:06:48;39.35;;;18.30;;
75009;SDS011;63564;46.840;18.336;2023-02-28T18:09:51;31.38;;;16.17;;
75009;SDS011;63564;46.840;18.336;2023-02-28T18:12:51;46.50;;;21.70;;
75009;SDS011;63564;46.840;18.336;2023-02-28T18:15:54;52.67;;;22.58;;
75009;SDS011;63564;46.840;18.336;2023-02-28T18:18:54;32.10;;;16.30;;
75009;SDS011;63564;46.840;18.336;2023-02-28T18:21:55;31.83;;;14.80;;
75009;SDS011;63564;46.840;18.336;2023-02-28T18:24:56;25.93;;;11.53;;
75009;SDS011;63564;46.840;18.336;2023-02-28T18:27:56;21.27;;;10.48;;
75009;SDS011;63564;46.840;18.336;2023-02-28T18:30:59;19.50;;;9.70;;
75009;SDS011;63564;46.840;18.336;2023-02-28T18:34:06;22.23;;;9.98;;
75009;SDS011;63564;46.840;18.336;2023-02-28T18:37:07;22.45;;;10.98;;
75009;SDS011;63564;46.840;18.336;2023-02-28T18:40:10;26.00;;;12.18;;
75009;SDS011;63564;46.840;18.336;2023-02-28T18:43:15;18.30;;;9.20;;
75009;SDS011;63564;46.840;18.336;2023-02-28T18:46:16;17.73;;;8.90;;
75009;SDS011;63564;46.840;18.336;2023-02-28T18:49:18;18.92;;;9.68;;
75009;SDS011;63564;46.840;18.336;2023-02-28T18:52:19;21.17;;;10.02;;
75009;SDS011;63564;46.840;18.336;2023-02-28T18:55:20;21.70;;;9.50;;
75009;SDS011;63564;46.840;18.336;2023-02-28T18:58:21;21.65;;;9.35;;
75009;SDS011;63564;46.840;18.336;2023-02-28T19:01:23;18.73;;;9.63;;
75009;SDS011;63564;46.840;18.336;2023-02-28T19:04:29;20.47;;;10.00;;
75009;SDS011;63564;46.840;18.336;2023-02-28T19:07:31;21.63;;;9.45;;
75009;SDS011;63564;46.840;18.336;2023-02-28T19:10:37;20.40;;;9.82;;
75009;SDS011;63564;46.840;18.336;2023-02-28T19:13:40;20.63;;;10.10;;
75009;SDS011;63564;46.840;18.336;2023-02-28T19:16:41;21.23;;;10.40;;
75009;SDS011;63564;46.840;18.336;2023-02-28T19:19:42;21.43;;;10.63;;
75009;SDS011;63564;46.840;18.336;2023-02-28T19:22:43;18.27;;;9.63;;
75009;SDS011;63564;46.840;18.336;2023-02-28T19:25:44;23.33;;;10.47;;
75009;SDS011;63564;46.840;18.336;2023-02-28T19:28:45;20.45;;;10.40;;
75009;SDS011;63564;46.840;18.336;2023-02-28T19:31:45;22.53;;;9.83;;
75009;SDS011;63564;46.840;18.336;2023-02-28T19:34:46;21.38;;;10.05;;
75009;SDS011;63564;46.840;18.336;2023-02-28T19:37:47;19.92;;;9.30;;
75009;SDS011;63564;46.840;18.336;2023-02-28T19:40:49;20.43;;;9.90;;
75009;SDS011;63564;46.840;18.336;2023-02-28T19:43:59;21.13;;;9.65;;
75009;SDS011;63564;46.840;18.336;2023-02-28T19:47:01;19.65;;;9.10;;
75009;SDS011;63564;46.840;18.336;2023-02-28T19:50:03;22.17;;;10.60;;
75009;SDS011;63564;46.840;18.336;2023-02-28T19:53:06;21.55;;;10.18;;
75009;SDS011;63564;46.840;18.336;2023-02-28T19:56:08;22.08;;;10.95;;
75009;SDS011;63564;46.840;18.336;2023-02-28T19:59:10;20.98;;;10.48;;
75009;SDS011;63564;46.840;18.336;2023-02-28T20:02:12;21.58;;;10.02;;
75009;SDS011;63564;46.840;18.336;2023-02-28T20:05:14;22.43;;;10.17;;
75009;SDS011;63564;46.840;18.336;2023-02-28T20:08:15;22.70;;;10.07;;
75009;SDS011;63564;46.840;18.336;2023-02-28T20:11:17;22.27;;;10.20;;
75009;SDS011;63564;46.840;18.336;2023-02-28T20:14:18;21.73;;;11.30;;
75009;SDS011;63564;46.840;18.336;2023-02-28T20:17:19;22.67;;;10.75;;
75009;SDS011;63564;46.840;18.336;2023-02-28T20:20:19;21.73;;;9.87;;
75009;SDS011;63564;46.840;18.336;2023-02-28T20:23:20;20.20;;;10.48;;
75009;SDS011;63564;46.840;18.336;2023-02-28T20:26:21;21.38;;;10.40;;